Time;durP1;ratioP1;P1;durP2;ratioP2;P2;SDS_P1;SDS_P2;PMS_P1;PMS_P2;Temp;Humidity;BMP_temperature;BMP_pressure;BME280_temperature;BME280_humidity;BME280_pressure;Samples;Min_cycle;Max_cycle;Signal;HPM_P1;HPM_P2
2021/06/30 00:01:44;;;;;;;80.38;26.38;;;;;;;16.52;92.73;97565.41;5067515;28;20237;-73
2021/06/30 00:04:11;;;;;;;78.72;14.65;;;;;;;16.62;93.95;97559.47;5069635;28;20229;-73
2021/06/30 00:06:38;;;;;;;68.55;13.18;;;;;;;16.60;92.75;97564.84;5068382;28;20238;-73
2021/06/30 00:09:05;;;;;;;76.20;17.75;;;;;;;16.52;92.85;97559.28;5066400;28;20243;-73
2021/06/30 00:11:31;;;;;;;64.97;12.50;;;;;;;16.62;92.41;97546.31;5068228;28;20240;-73
2021/06/30 00:13:58;;;;;;;68.10;12.95;;;;;;;16.39;95.45;97554.03;5069993;28;20225;-72
2021/06/30 00:16:30;;;;;;;59.92;13.02;;;;;;;16.59;94.66;97552.59;5067983;28;20271;-73
2021/06/30 00:18:58;;;;;;;57.65;12.98;;;;;;;16.64;93.16;97560.19;5071483;28;20300;-73
2021/06/30 00:21:25;;;;;;;68.70;17.58;;;;;;;16.42;95.22;97558.28;5069891;28;20244;-72
2021/06/30 00:23:52;;;;;;;57.75;14.93;;;;;;;16.55;93.30;97548.53;5069637;28;20869;-73
2021/06/30 00:26:18;;;;;;;66.60;16.77;;;;;;;16.58;93.59;97549.16;5071644;28;20240;-72
2021/06/30 00:28:45;;;;;;;56.70;15.20;;;;;;;16.34;96.25;97561.44;5068340;28;20201;-73
2021/06/30 00:31:12;;;;;;;72.15;15.57;;;;;;;16.56;94.55;97552.84;5067069;28;20233;-73
2021/06/30 00:33:38;;;;;;;75.80;14.15;;;;;;;16.58;94.06;97550.94;5068414;28;20217;-73
2021/06/30 00:36:06;;;;;;;74.90;14.48;;;;;;;16.55;94.42;97565.16;5067095;28;20239;-73
2021/06/30 00:38:33;;;;;;;64.72;13.85;;;;;;;16.56;94.48;97558.13;5065837;28;20577;-74
2021/06/30 00:40:59;;;;;;;65.35;14.10;;;;;;;16.66;93.98;97559.13;5068253;28;20230;-74
2021/06/30 00:43:26;;;;;;;64.80;14.00;;;;;;;16.72;91.96;97549.91;5068871;28;20234;-73
2021/06/30 00:45:53;;;;;;;59.80;13.07;;;;;;;16.74;91.46;97548.88;5064826;28;20229;-73
2021/06/30 00:48:19;;;;;;;59.40;13.18;;;;;;;16.45;95.02;97547.50;5070092;28;20224;-73
2021/06/30 00:50:46;;;;;;;67.72;13.35;;;;;;;16.72;93.53;97545.50;5066953;28;20237;-73
2021/06/30 00:53:14;;;;;;;58.78;12.63;;;;;;;16.70;93.92;97536.88;5068456;28;20213;-74
2021/06/30 00:55:40;;;;;;;67.70;14.43;;;;;;;16.64;94.04;97534.69;5067489;28;20239;-73
2021/06/30 00:58:08;;;;;;;70.55;14.48;;;;;;;16.56;94.75;97544.97;5065006;28;20217;-73
2021/06/30 01:00:34;;;;;;;72.43;14.15;;;;;;;16.41;96.57;97548.69;5067787;28;20241;-72
2021/06/30 01:03:01;;;;;;;71.07;15.40;;;;;;;16.44;95.67;97548.47;5067375;28;20219;-73
2021/06/30 01:05:27;;;;;;;66.43;14.02;;;;;;;16.49;95.75;97539.28;5067359;28;20255;-72
2021/06/30 01:07:54;;;;;;;66.57;13.82;;;;;;;16.23;96.95;97538.53;5066934;28;20222;-73
2021/06/30 01:10:22;;;;;;;63.30;13.98;;;;;;;16.18;97.09;97538.00;5066049;28;20693;-73
2021/06/30 01:12:48;;;;;;;63.63;13.30;;;;;;;16.41;95.94;97536.34;5067589;28;20224;-72
2021/06/30 01:15:15;;;;;;;66.63;13.80;;;;;;;16.48;95.16;97534.13;5064784;28;20596;-73
2021/06/30 01:17:44;;;;;;;76.63;14.95;;;;;;;16.23;95.99;97533.28;5068204;28;20212;-74
2021/06/30 01:20:11;;;;;;;60.92;13.25;;;;;;;16.16;97.27;97530.22;5069269;28;20213;-72
2021/06/30 01:22:38;;;;;;;66.03;14.68;;;;;;;16.14;96.98;97526.03;5065154;28;20224;-73
2021/06/30 01:25:07;;;;;;;68.68;13.40;;;;;;;16.08;97.56;97523.81;5067861;28;20213;-73
2021/06/30 01:27:34;;;;;;;70.00;13.80;;;;;;;16.29;96.37;97517.03;5067616;28;20593;-73
2021/06/30 01:30:00;;;;;;;59.92;13.23;;;;;;;16.10;97.64;97509.63;5066460;28;20232;-72
2021/06/30 01:32:27;;;;;;;68.13;13.85;;;;;;;16.19;96.36;97510.72;5065232;28;20324;-73
2021/06/30 01:34:53;;;;;;;84.85;15.55;;;;;;;16.15;96.76;97509.28;5064176;28;20224;-73
2021/06/30 01:37:20;;;;;;;53.78;12.43;;;;;;;15.99;97.66;97502.50;5065784;28;20241;-73
2021/06/30 01:39:46;;;;;;;76.38;14.65;;;;;;;16.02;97.28;97508.47;5068877;28;20218;-72
2021/06/30 01:42:15;;;;;;;58.83;13.15;;;;;;;16.12;96.21;97499.84;5066065;28;20236;-72
2021/06/30 01:44:41;;;;;;;69.32;13.75;;;;;;;15.89;98.00;97504.09;5067594;28;20227;-73
2021/06/30 01:47:08;;;;;;;73.05;11.57;;;;;;;15.99;96.92;97494.59;5067885;28;20241;-73
2021/06/30 01:49:37;;;;;;;53.20;8.80;;;;;;;16.13;96.66;97496.22;5069343;28;20237;-73
2021/06/30 01:52:04;;;;;;;54.60;8.93;;;;;;;15.99;97.56;97486.72;5067607;28;20237;-73
2021/06/30 01:54:31;;;;;;;64.03;9.63;;;;;;;16.14;97.79;97476.03;5065863;28;20218;-73
2021/06/30 01:56:57;;;;;;;69.60;10.45;;;;;;;16.19;97.45;97473.91;5069421;28;20232;-73
2021/06/30 01:59:25;;;;;;;64.72;9.82;;;;;;;16.33;95.31;97481.63;5070484;28;20616;-73
2021/06/30 02:01:51;;;;;;;78.82;11.18;;;;;;;16.15;95.00;97482.97;5069569;28;20244;-73
2021/06/30 02:04:18;;;;;;;54.20;8.25;;;;;;;16.28;93.97;97483.75;5073177;28;21037;-72
2021/06/30 02:06:46;;;;;;;58.30;12.77;;;;;;;16.12;94.79;97485.81;5069492;28;20249;-72
2021/06/30 02:09:14;;;;;;;69.38;13.68;;;;;;;16.16;94.97;97487.28;5069379;28;20923;-73
2021/06/30 02:11:41;;;;;;;79.82;14.38;;;;;;;16.12;94.90;97493.69;5069178;28;20294;-73
2021/06/30 02:14:09;;;;;;;76.20;14.30;;;;;;;16.33;93.95;97486.91;5069618;28;20206;-72
2021/06/30 02:16:36;;;;;;;67.25;13.43;;;;;;;16.25;95.74;97501.56;5071002;28;20248;-73
2021/06/30 02:19:06;;;;;;;53.53;11.35;;;;;;;16.26;94.10;97498.81;5070599;28;20222;-73
2021/06/30 02:21:33;;;;;;;69.45;13.77;;;;;;;16.21;94.92;97511.50;5069175;28;20236;-73
2021/06/30 02:24:00;;;;;;;61.90;13.57;;;;;;;16.46;95.02;97507.06;5071754;28;20220;-73
2021/06/30 02:26:28;;;;;;;70.35;13.70;;;;;;;16.27;93.99;97518.94;5068328;28;20245;-73
2021/06/30 02:28:54;;;;;;;72.13;13.88;;;;;;;16.38;95.02;97532.16;5069609;28;20217;-73
2021/06/30 02:31:21;;;;;;;61.08;12.48;;;;;;;16.15;95.68;97540.84;5068759;28;20331;-73
2021/06/30 02:33:49;;;;;;;47.75;10.82;;;;;;;16.30;95.89;97544.19;5069409;28;20209;-73
2021/06/30 02:36:16;;;;;;;43.97;10.27;;;;;;;16.48;95.31;97544.66;5066800;28;20254;-72
2021/06/30 02:38:43;;;;;;;71.93;13.15;;;;;;;16.62;95.68;97548.94;5072292;28;20217;-72
2021/06/30 02:41:09;;;;;;;68.45;13.13;;;;;;;16.65;93.09;97544.28;5072584;28;20245;-73
2021/06/30 02:43:36;;;;;;;74.50;15.02;;;;;;;16.68;93.67;97538.78;5067601;28;20220;-72
2021/06/30 02:46:03;;;;;;;58.30;12.38;;;;;;;16.28;94.23;97543.44;5068803;28;20241;-72
2021/06/30 02:48:30;;;;;;;53.10;11.55;;;;;;;16.36;92.71;97549.84;5071237;28;20894;-73
2021/06/30 02:50:58;;;;;;;67.90;13.30;;;;;;;16.34;93.54;97551.75;5071978;28;20240;-73
2021/06/30 02:53:25;;;;;;;61.90;12.65;;;;;;;16.21;93.35;97550.09;5070544;28;20224;-72
2021/06/30 02:55:51;;;;;;;59.72;12.95;;;;;;;16.23;93.92;97551.69;5067333;28;20240;-73
2021/06/30 02:58:18;;;;;;;68.10;13.98;;;;;;;16.28;93.34;97562.69;5066222;28;20223;-73
2021/06/30 03:00:44;;;;;;;74.63;14.38;;;;;;;16.34;92.58;97561.44;5070943;28;20230;-73
2021/06/30 03:03:11;;;;;;;65.93;13.25;;;;;;;16.23;93.06;97554.31;5068329;28;20928;-72
2021/06/30 03:05:37;;;;;;;74.45;14.73;;;;;;;16.24;93.05;97555.97;5067485;28;20898;-73
2021/06/30 03:08:05;;;;;;;69.65;14.18;;;;;;;16.20;93.90;97562.41;5070687;28;20221;-72
2021/06/30 03:10:32;;;;;;;63.55;13.50;;;;;;;16.20;93.73;97559.78;5065814;28;20245;-73
2021/06/30 03:12:58;;;;;;;70.57;14.55;;;;;;;16.25;93.56;97556.81;5071186;28;20217;-73
2021/06/30 03:15:25;;;;;;;53.67;12.35;;;;;;;16.26;93.65;97556.72;5070255;28;20241;-73
2021/06/30 03:17:51;;;;;;;61.33;12.57;;;;;;;16.46;95.00;97552.66;5067872;28;20652;-73
2021/06/30 03:20:18;;;;;;;62.33;13.63;;;;;;;16.63;93.98;97548.78;5069738;28;20228;-72
2021/06/30 03:22:45;;;;;;;62.60;12.75;;;;;;;16.67;92.82;97547.63;5069605;28;20213;-72
2021/06/30 03:25:15;;;;;;;69.10;14.07;;;;;;;16.47;92.36;97556.13;5067217;28;20218;-72
2021/06/30 03:27:42;;;;;;;69.70;14.63;;;;;;;16.46;91.69;97557.09;5072931;28;20217;-72
2021/06/30 03:30:11;;;;;;;72.15;14.05;;;;;;;16.26;92.33;97564.59;5069317;28;20626;-72
2021/06/30 03:32:38;;;;;;;55.33;11.88;;;;;;;16.24;92.90;97561.25;5071283;28;20227;-73
2021/06/30 03:35:06;;;;;;;64.90;13.75;;;;;;;16.22;93.54;97565.78;5070640;28;20220;-73
2021/06/30 03:37:33;;;;;;;69.50;13.20;;;;;;;16.15;93.25;97559.28;5069262;28;20233;-73
2021/06/30 03:40:00;;;;;;;66.25;13.25;;;;;;;16.26;92.13;97564.59;5069523;28;20694;-73
2021/06/30 03:42:28;;;;;;;55.63;13.10;;;;;;;16.24;93.18;97560.41;5069280;28;20235;-73
2021/06/30 03:44:54;;;;;;;77.05;14.63;;;;;;;16.04;94.42;97559.19;5066500;28;20615;-73
2021/06/30 03:47:21;;;;;;;53.22;12.25;;;;;;;16.01;94.33;97552.38;5069179;28;20275;-73
2021/06/30 03:49:47;;;;;;;61.10;13.00;;;;;;;15.95;94.68;97550.16;5069648;28;20216;-73
2021/06/30 03:52:14;;;;;;;54.88;12.13;;;;;;;15.91;95.76;97553.94;5070000;28;20237;-72
2021/06/30 03:54:40;;;;;;;60.35;12.63;;;;;;;16.17;93.86;97549.47;5067019;28;20259;-72
2021/06/30 03:57:07;;;;;;;60.65;12.85;;;;;;;16.25;93.79;97557.69;5068564;28;20252;-73
2021/06/30 03:59:35;;;;;;;71.80;14.13;;;;;;;16.23;92.88;97558.72;5068427;28;20214;-72
2021/06/30 04:02:01;;;;;;;69.82;14.98;;;;;;;16.25;92.91;97564.72;5069181;28;20243;-72
2021/06/30 04:04:28;;;;;;;71.40;13.80;;;;;;;16.10;93.83;97558.75;5067413;28;20217;-72
2021/06/30 04:06:55;;;;;;;63.13;13.13;;;;;;;15.95;95.27;97556.28;5067469;28;20250;-73
2021/06/30 04:09:22;;;;;;;61.35;13.45;;;;;;;16.18;94.66;97566.97;5070161;28;20232;-73
2021/06/30 04:11:49;;;;;;;62.15;13.15;;;;;;;16.14;94.37;97554.97;5067675;28;20251;-73
2021/06/30 04:14:15;;;;;;;59.97;12.98;;;;;;;16.18;94.39;97564.31;5066505;28;20208;-72
2021/06/30 04:16:44;;;;;;;60.10;12.55;;;;;;;16.08;95.67;97579.06;5065231;28;20256;-73
2021/06/30 04:19:10;;;;;;;64.35;13.52;;;;;;;16.25;94.93;97578.72;5069842;28;20217;-72
2021/06/30 04:21:37;;;;;;;70.53;14.73;;;;;;;16.34;95.25;97578.06;5067040;28;20233;-73
2021/06/30 04:24:03;;;;;;;67.18;15.18;;;;;;;16.26;97.14;97588.28;5070543;28;20312;-73
2021/06/30 04:26:30;;;;;;;56.83;13.65;;;;;;;16.12;98.68;97594.53;5066572;28;20287;-73
2021/06/30 04:28:56;;;;;;;66.43;14.93;;;;;;;16.24;97.24;97587.56;5067274;28;20206;-73
2021/06/30 04:31:23;;;;;;;57.72;13.50;;;;;;;16.13;98.86;97595.38;5069800;28;20249;-73
2021/06/30 04:33:51;;;;;;;60.28;14.45;;;;;;;16.26;99.09;97590.91;5067175;28;20212;-73
2021/06/30 04:36:17;;;;;;;63.88;14.40;;;;;;;16.54;96.41;97588.94;5067682;28;20765;-73
2021/06/30 04:38:44;;;;;;;59.63;14.07;;;;;;;16.49;98.49;97593.72;5067380;28;20798;-73
2021/06/30 04:41:11;;;;;;;70.75;14.95;;;;;;;16.37;99.46;97593.63;5067673;28;21037;-73
2021/06/30 04:43:39;;;;;;;71.68;15.27;;;;;;;16.37;100.00;97598.91;5069393;28;20220;-72
2021/06/30 04:46:06;;;;;;;60.88;13.57;;;;;;;16.49;97.57;97591.09;5067077;28;20302;-72
2021/06/30 04:48:34;;;;;;;59.53;13.23;;;;;;;16.47;97.70;97587.72;5066990;28;20236;-72
2021/06/30 04:51:02;;;;;;;64.55;14.45;;;;;;;16.63;97.48;97588.28;5066327;28;20322;-73
2021/06/30 04:53:28;;;;;;;61.60;13.30;;;;;;;16.75;97.35;97576.88;5066646;28;20369;-73
2021/06/30 04:55:55;;;;;;;59.75;14.18;;;;;;;16.87;95.11;97587.50;5067657;28;20236;-72
2021/06/30 04:58:23;;;;;;;56.50;8.90;;;;;;;16.78;95.15;97586.38;5070354;28;20217;-73
2021/06/30 05:00:53;;;;;;;67.75;9.80;;;;;;;16.88;95.12;97586.56;5067738;28;20232;-72
2021/06/30 05:03:19;;;;;;;52.13;13.82;;;;;;;16.82;96.63;97592.22;5063946;28;20201;-73
2021/06/30 05:05:46;;;;;;;49.20;7.65;;;;;;;16.70;98.11;97599.22;5071393;28;20244;-72
2021/06/30 05:08:13;;;;;;;52.03;8.52;;;;;;;16.55;98.97;97593.28;5070058;28;20225;-72
2021/06/30 05:10:40;;;;;;;46.05;7.90;;;;;;;16.54;100.00;97600.34;5067792;28;20252;-73
2021/06/30 05:13:06;;;;;;;53.97;9.10;;;;;;;16.51;100.00;97594.47;5070495;28;20204;-72
2021/06/30 05:15:33;;;;;;;48.13;7.75;;;;;;;16.52;100.00;97598.75;5071670;28;20232;-73
2021/06/30 05:17:59;;;;;;;43.72;7.65;;;;;;;16.49;100.00;97596.38;5068027;28;20213;-73
2021/06/30 05:20:26;;;;;;;43.90;7.75;;;;;;;16.41;100.00;97603.94;5069174;28;20946;-72
2021/06/30 05:22:53;;;;;;;42.40;7.05;;;;;;;16.50;100.00;97598.03;5070218;28;20256;-73
2021/06/30 05:25:21;;;;;;;49.42;7.75;;;;;;;16.56;100.00;97602.88;5069191;28;20761;-74
2021/06/30 05:27:47;;;;;;;48.42;7.50;;;;;;;16.56;99.15;97606.34;5067142;28;20220;-74
2021/06/30 05:30:15;;;;;;;49.90;7.55;;;;;;;16.69;100.00;97603.66;5070306;28;20213;-73
2021/06/30 05:32:42;;;;;;;53.50;8.30;;;;;;;16.57;99.60;97604.53;5074191;28;20237;-73
2021/06/30 05:35:09;;;;;;;56.03;8.30;;;;;;;16.51;99.90;97608.44;5072714;28;20611;-73
2021/06/30 05:37:36;;;;;;;54.70;8.15;;;;;;;16.44;100.00;97603.75;5074365;28;20233;-72
2021/06/30 05:40:03;;;;;;;41.25;6.63;;;;;;;16.47;100.00;97599.09;5072792;28;20305;-73
2021/06/30 05:42:30;;;;;;;43.35;7.13;;;;;;;16.58;100.00;97601.81;5073826;28;20260;-73
2021/06/30 05:44:57;;;;;;;49.25;7.90;;;;;;;16.45;100.00;97594.88;5074640;28;20251;-72
2021/06/30 05:47:24;;;;;;;49.25;7.40;;;;;;;16.51;100.00;97594.47;5073050;28;20323;-72
2021/06/30 05:49:50;;;;;;;41.75;6.78;;;;;;;16.53;100.00;97596.03;5074086;28;20621;-73
2021/06/30 05:52:17;;;;;;;45.05;6.95;;;;;;;16.49;100.00;97596.38;5070716;28;20251;-73
2021/06/30 05:54:43;;;;;;;58.10;8.55;;;;;;;16.68;100.00;97601.97;5071698;28;20220;-72
2021/06/30 05:57:10;;;;;;;50.17;7.63;;;;;;;16.44;100.00;97594.03;5074242;28;20408;-72
2021/06/30 05:59:38;;;;;;;52.53;7.90;;;;;;;16.52;100.00;97590.84;5071866;28;20224;-73
2021/06/30 06:02:05;;;;;;;50.67;7.50;;;;;;;16.65;100.00;97594.31;5071305;28;20225;-72
2021/06/30 06:04:31;;;;;;;41.92;7.18;;;;;;;16.61;100.00;97594.63;5073576;28;20247;-73
2021/06/30 06:06:58;;;;;;;51.95;7.78;;;;;;;16.66;100.00;97595.97;5073449;28;20742;-73
2021/06/30 06:09:25;;;;;;;41.67;6.32;;;;;;;16.69;100.00;97598.41;5071439;28;20225;-72
2021/06/30 06:11:51;;;;;;;51.50;7.72;;;;;;;16.66;100.00;97603.03;5070742;28;20252;-72
2021/06/30 06:14:18;;;;;;;44.83;6.72;;;;;;;16.86;100.00;97589.28;5073119;28;20223;-73
2021/06/30 06:16:46;;;;;;;46.05;6.78;;;;;;;16.90;100.00;97585.47;5073886;28;21089;-73
2021/06/30 06:19:12;;;;;;;48.13;6.60;;;;;;;16.73;100.00;97584.06;5070090;28;20228;-72
2021/06/30 06:21:39;;;;;;;56.78;7.80;;;;;;;16.60;100.00;97588.53;5074123;28;20235;-72
2021/06/30 06:24:05;;;;;;;44.30;6.25;;;;;;;16.68;100.00;97594.06;5072457;28;20706;-73
2021/06/30 06:26:32;;;;;;;45.53;6.32;;;;;;;16.85;99.65;97592.88;5072551;28;20237;-73
2021/06/30 06:28:58;;;;;;;43.55;6.28;;;;;;;16.86;100.00;97584.03;5071313;28;20221;-72
2021/06/30 06:31:27;;;;;;;44.65;7.15;;;;;;;16.73;100.00;97589.31;5073525;28;20710;-72
2021/06/30 06:33:55;;;;;;;48.95;7.00;;;;;;;16.86;100.00;97583.19;5071642;28;20221;-73
2021/06/30 06:36:22;;;;;;;44.85;6.53;;;;;;;16.53;100.00;97582.84;5067582;28;20240;-72
2021/06/30 06:38:48;;;;;;;43.10;6.90;;;;;;;16.67;100.00;97573.97;5071882;28;20225;-72
2021/06/30 06:41:15;;;;;;;42.83;7.45;;;;;;;16.79;99.79;97576.66;5074163;28;20247;-72
2021/06/30 06:43:43;;;;;;;48.67;7.43;;;;;;;16.63;100.00;97580.38;5073890;28;20566;-72
2021/06/30 06:46:09;;;;;;;49.92;7.70;;;;;;;16.74;100.00;97575.22;5063997;28;20256;-73
2021/06/30 06:48:36;;;;;;;52.13;8.02;;;;;;;16.49;100.00;97580.56;5072961;28;20682;-72
2021/06/30 06:51:04;;;;;;;49.78;7.60;;;;;;;16.56;100.00;97577.38;5073079;28;20234;-71
2021/06/30 06:53:30;;;;;;;48.35;7.45;;;;;;;16.37;100.00;97577.84;5075744;28;20217;-72
2021/06/30 06:56:00;;;;;;;42.35;7.03;;;;;;;16.42;100.00;97584.59;5072358;28;20245;-72
2021/06/30 06:58:26;;;;;;;47.55;7.43;;;;;;;16.56;100.00;97587.91;5073841;28;20270;-73
2021/06/30 07:00:53;;;;;;;42.25;6.22;;;;;;;16.58;100.00;97590.44;5069105;28;20240;-73
2021/06/30 07:03:19;;;;;;;40.28;5.97;;;;;;;16.56;100.00;97593.19;5073491;28;20217;-72
2021/06/30 07:05:46;;;;;;;49.22;7.00;;;;;;;16.57;100.00;97583.47;5070066;28;20244;-72
2021/06/30 07:08:14;;;;;;;50.75;7.40;;;;;;;16.70;100.00;97594.78;5072978;28;20224;-72
2021/06/30 07:10:40;;;;;;;45.38;6.32;;;;;;;16.68;100.00;97586.16;5069539;28;20317;-72
2021/06/30 07:13:07;;;;;;;40.58;5.90;;;;;;;16.69;100.00;97590.50;5072300;28;20236;-72
2021/06/30 07:15:33;;;;;;;45.08;6.25;;;;;;;16.65;100.00;97591.69;5071910;28;20237;-72
2021/06/30 07:18:00;;;;;;;40.95;5.50;;;;;;;16.52;100.00;97591.72;5070785;28;20213;-73
2021/06/30 07:20:27;;;;;;;48.20;6.28;;;;;;;16.49;100.00;97591.09;5072062;28;20236;-72
2021/06/30 07:22:53;;;;;;;40.90;5.97;;;;;;;16.58;100.00;97595.72;5071802;28;20205;-72
2021/06/30 07:25:21;;;;;;;43.70;6.15;;;;;;;16.65;100.00;97590.81;5069495;28;20212;-72
2021/06/30 07:27:48;;;;;;;42.90;6.03;;;;;;;16.72;100.00;97587.63;5072608;28;20678;-73
2021/06/30 07:30:15;;;;;;;42.15;6.38;;;;;;;16.70;100.00;97594.78;5068860;28;20217;-73
2021/06/30 07:32:42;;;;;;;44.58;6.28;;;;;;;16.62;100.00;97591.88;5073035;28;20232;-72
2021/06/30 07:35:09;;;;;;;40.45;5.47;;;;;;;16.59;99.99;97594.72;5070877;28;20216;-72
2021/06/30 07:37:35;;;;;;;47.13;6.22;;;;;;;16.66;100.00;97595.97;5072434;28;20213;-73
2021/06/30 07:40:02;;;;;;;46.65;6.30;;;;;;;16.67;100.00;97595.03;5069102;28;20269;-72
2021/06/30 07:42:30;;;;;;;37.65;5.30;;;;;;;16.55;100.00;97596.75;5071959;28;20241;-73
2021/06/30 07:44:56;;;;;;;53.35;6.95;;;;;;;16.65;100.00;97601.34;5073332;28;20271;-72
2021/06/30 07:47:23;;;;;;;47.30;5.95;;;;;;;16.72;98.04;97603.41;5070628;28;20234;-72
2021/06/30 07:49:49;;;;;;;43.00;5.43;;;;;;;16.73;97.30;97605.13;5071169;28;20213;-72
2021/06/30 07:52:16;;;;;;;40.90;5.35;;;;;;;16.60;99.63;97603.47;5070282;28;20729;-72
2021/06/30 07:54:43;;;;;;;46.58;5.80;;;;;;;16.75;96.69;97608.47;5070664;28;20209;-72
2021/06/30 07:57:09;;;;;;;43.67;5.43;;;;;;;16.74;96.56;97604.19;5070803;28;20245;-73
2021/06/30 07:59:37;;;;;;;48.50;6.28;;;;;;;17.12;97.06;97605.81;5070987;28;20214;-72
2021/06/30 08:02:04;;;;;;;50.00;6.38;;;;;;;17.39;94.56;97596.81;5066937;28;20585;-72
2021/06/30 08:04:31;;;;;;;43.60;5.53;;;;;;;17.42;93.28;97596.56;5071651;28;20209;-73
2021/06/30 08:06:57;;;;;;;39.47;4.95;;;;;;;17.33;95.82;97602.53;5070359;28;20627;-72
2021/06/30 08:09:24;;;;;;;41.83;5.30;;;;;;;17.31;98.52;97605.31;5071895;28;20263;-73
2021/06/30 08:11:50;;;;;;;47.38;5.93;;;;;;;17.08;96.25;97599.09;5070063;28;20718;-72
2021/06/30 08:14:17;;;;;;;46.85;5.78;;;;;;;16.94;100.00;97602.72;5073393;28;20240;-73
2021/06/30 08:16:45;;;;;;;42.03;5.15;;;;;;;16.89;97.52;97604.03;5066066;28;20240;-73
2021/06/30 08:19:11;;;;;;;45.65;5.57;;;;;;;16.84;96.49;97612.28;5067864;28;20225;-72
2021/06/30 08:21:38;;;;;;;55.90;6.82;;;;;;;16.87;96.69;97616.47;5069821;28;20260;-72
2021/06/30 08:24:05;;;;;;;50.92;6.03;;;;;;;16.77;96.97;97622.38;5068959;28;20688;-73
2021/06/30 08:26:31;;;;;;;50.10;6.40;;;;;;;16.69;98.70;97619.47;5070042;28;20244;-73
2021/06/30 08:28:59;;;;;;;46.38;5.85;;;;;;;16.47;94.89;97614.03;5070102;28;20213;-72
2021/06/30 08:31:26;;;;;;;49.22;6.07;;;;;;;16.50;92.58;97619.09;5070432;28;20234;-72
2021/06/30 08:33:54;;;;;;;47.17;6.03;;;;;;;16.66;95.28;97627.56;5073147;28;20205;-73
2021/06/30 08:36:20;;;;;;;35.58;4.57;;;;;;;16.67;93.27;97625.78;5070670;28;20731;-72
2021/06/30 08:38:47;;;;;;;44.25;5.68;;;;;;;16.69;95.85;97635.25;5071231;28;20221;-72
2021/06/30 08:41:14;;;;;;;52.17;6.60;;;;;;;16.63;94.53;97630.41;5070746;28;20621;-72
2021/06/30 08:43:40;;;;;;;49.78;6.15;;;;;;;16.80;90.87;97637.13;5070823;28;20209;-72
2021/06/30 08:46:08;;;;;;;32.97;4.32;;;;;;;16.74;92.94;97630.50;5067345;28;20237;-72
2021/06/30 08:48:37;;;;;;;47.75;5.95;;;;;;;16.74;90.19;97632.28;5071934;28;20228;-72
2021/06/30 08:51:05;;;;;;;48.35;6.15;;;;;;;17.02;91.29;97636.44;5070081;28;20246;-72
2021/06/30 08:53:31;;;;;;;52.55;6.10;;;;;;;17.04;93.41;97636.31;5070670;28;20236;-72
2021/06/30 08:55:58;;;;;;;39.55;5.03;;;;;;;17.03;93.84;97632.84;5073164;28;20768;-72
2021/06/30 08:58:25;;;;;;;40.92;5.28;;;;;;;17.11;90.87;97630.50;5070142;28;20409;-72
2021/06/30 09:00:52;;;;;;;40.03;5.13;;;;;;;17.09;91.84;97632.41;5069351;28;20240;-73
2021/06/30 09:03:19;;;;;;;48.53;6.15;;;;;;;17.01;96.14;97633.91;5070375;28;20213;-73
2021/06/30 09:09:02;;;;;;;46.97;6.00;;;;;;;17.30;88.85;97623.88;5058720;28;20627;-72
2021/06/30 09:11:31;;;;;;;48.13;6.15;;;;;;;17.43;91.84;97623.78;5068906;28;20255;-72
2021/06/30 09:14:25;;;;;;;48.63;6.15;;;;;;;17.59;89.62;97629.59;5067498;28;20225;-72
2021/06/30 09:17:20;;;;;;;34.35;4.45;;;;;;;17.30;85.84;97621.22;5032302;28;20961;-72
2021/06/30 09:19:50;;;;;;;42.55;5.55;;;;;;;16.96;84.92;97631.59;5070432;28;20201;-72
2021/06/30 09:22:17;;;;;;;47.40;6.00;;;;;;;16.87;87.51;97632.28;5068218;28;20241;-72
2021/06/30 09:24:45;;;;;;;53.45;6.47;;;;;;;16.67;86.61;97634.53;5071268;28;20220;-72
2021/06/30 09:27:13;;;;;;;33.80;4.45;;;;;;;16.69;86.58;97643.16;5069061;28;20246;-72
2021/06/30 09:29:41;;;;;;;43.30;5.40;;;;;;;16.76;86.40;97647.03;5069385;28;20212;-72
2021/06/30 09:32:10;;;;;;;44.47;5.88;;;;;;;17.01;87.97;97640.03;5069868;28;20302;-73
2021/06/30 09:34:38;;;;;;;45.70;5.65;;;;;;;17.06;86.30;97648.44;5071522;28;20206;-73
2021/06/30 09:37:06;;;;;;;42.83;5.60;;;;;;;16.94;87.26;97644.03;5068611;28;20769;-72
2021/06/30 09:39:37;;;;;;;50.67;6.57;;;;;;;16.93;83.97;97642.38;5069388;28;20258;-73
2021/06/30 09:42:06;;;;;;;51.72;6.70;;;;;;;16.98;87.35;97639.41;5069035;28;20237;-72
2021/06/30 09:44:33;;;;;;;43.65;5.60;;;;;;;16.85;83.97;97642.09;5070735;28;20603;-72
2021/06/30 09:46:59;;;;;;;53.35;6.80;;;;;;;17.06;85.59;97632.63;5069819;28;20882;-72
2021/06/30 09:49:26;;;;;;;45.92;6.38;;;;;;;17.36;84.52;97630.47;5067973;28;20229;-72
2021/06/30 09:52:09;;;;;;;44.08;5.90;;;;;;;17.80;81.53;97619.19;5070201;28;20622;-73
2021/06/30 09:54:37;;;;;;;43.72;5.60;;;;;;;17.66;78.85;97622.03;5072491;28;20217;-72
2021/06/30 09:57:07;;;;;;;53.92;7.05;;;;;;;17.66;86.87;97629.94;5069871;28;20232;-73
2021/06/30 09:59:37;;;;;;;48.67;6.25;;;;;;;17.65;85.88;97628.28;5070882;28;20209;-73
2021/06/30 10:02:05;;;;;;;54.40;6.53;;;;;;;17.59;82.92;97634.88;5069127;28;20249;-72
2021/06/30 10:04:33;;;;;;;37.38;4.50;;;;;;;17.87;81.31;97627.53;5068526;28;20690;-72
2021/06/30 10:07:10;;;;;;;49.53;7.07;;;;;;;18.14;77.46;97635.13;5069848;28;20752;-74
2021/06/30 10:09:36;;;;;;;39.38;4.88;;;;;;;18.35;77.65;97621.19;5068961;28;20294;-73
2021/06/30 10:12:07;;;;;;;49.15;10.52;;;;;;;18.26;74.69;97613.00;5067946;28;20756;-72
2021/06/30 10:14:35;;;;;;;50.63;13.85;;;;;;;18.09;76.84;97610.88;5070905;28;20282;-72
2021/06/30 10:17:01;;;;;;;39.83;13.43;;;;;;;17.87;74.77;97609.88;5070282;28;20240;-73
2021/06/30 10:19:28;;;;;;;46.20;12.63;;;;;;;17.84;76.92;97612.72;5070472;28;20218;-72
2021/06/30 10:21:55;;;;;;;47.92;12.52;;;;;;;18.11;74.06;97614.22;5072096;28;20247;-73
2021/06/30 10:24:22;;;;;;;44.92;13.38;;;;;;;18.20;79.43;97612.69;5073283;28;20213;-73
2021/06/30 10:26:50;;;;;;;50.28;17.17;;;;;;;18.39;75.30;97606.78;5071661;28;20318;-72
2021/06/30 10:29:18;;;;;;;39.20;4.70;;;;;;;18.42;73.84;97601.25;5072361;28;20228;-73
2021/06/30 10:31:47;;;;;;;44.20;5.53;;;;;;;18.66;73.55;97615.13;5072705;28;20305;-72
2021/06/30 10:34:14;;;;;;;52.08;6.22;;;;;;;18.83;74.23;97623.53;5074026;28;20734;-73
2021/06/30 10:36:53;;;;;;;47.90;6.13;;;;;;;18.95;72.38;97619.06;5073164;28;20245;-73
2021/06/30 10:39:21;;;;;;;47.88;7.28;;;;;;;19.23;72.14;97617.66;5071531;28;20223;-72
2021/06/30 10:41:53;;;;;;;46.90;9.40;;;;;;;19.31;74.95;97614.38;5073585;28;20229;-72
2021/06/30 10:44:23;;;;;;;45.78;8.95;;;;;;;19.23;73.10;97622.94;5069773;28;20694;-72
2021/06/30 10:46:51;;;;;;;52.20;6.93;;;;;;;19.23;69.89;97617.66;5073193;28;20244;-73
2021/06/30 10:49:28;;;;;;;49.42;6.05;;;;;;;19.33;69.33;97613.25;5072428;28;20679;-73
2021/06/30 10:51:57;;;;;;;42.92;8.80;;;;;;;19.52;68.97;97602.00;5073193;28;20236;-72
2021/06/30 10:54:40;;;;;;;46.58;6.13;;;;;;;19.60;74.19;97609.28;5073547;28;20236;-72
2021/06/30 10:57:29;;;;;;;41.47;5.20;;;;;;;19.49;65.80;97604.06;5070670;28;20245;-72
2021/06/30 11:00:17;;;;;;;48.60;6.03;;;;;;;19.09;66.67;97610.00;5073340;28;20740;-72
2021/06/30 11:02:44;;;;;;;49.42;6.30;;;;;;;19.03;66.56;97614.84;5071615;28;20234;-72
2021/06/30 11:05:33;;;;;;;48.42;6.22;;;;;;;19.00;68.98;97608.94;5070625;28;20217;-73
2021/06/30 11:08:00;;;;;;;49.78;5.88;;;;;;;18.94;68.40;97607.66;5071697;28;20242;-73
2021/06/30 11:10:49;;;;;;;53.40;7.82;;;;;;;18.84;73.05;97607.56;5073462;28;20247;-72
2021/06/30 11:13:16;;;;;;;52.97;7.25;;;;;;;18.74;69.84;97595.19;5072874;28;20299;-72
2021/06/30 11:15:44;;;;;;;41.97;5.82;;;;;;;18.76;69.18;97598.53;5074111;28;20930;-72
2021/06/30 11:18:42;;;;;;;56.97;7.15;;;;;;;18.79;68.13;97590.38;5073735;28;20875;-72
2021/06/30 11:21:11;;;;;;;47.58;5.97;;;;;;;18.72;69.29;97594.47;5074515;28;20327;-72
2021/06/30 11:23:42;;;;;;;45.13;5.57;;;;;;;18.55;70.12;97596.66;5072893;28;20303;-72
2021/06/30 11:26:33;;;;;;;44.83;5.55;;;;;;;18.46;70.78;97589.50;5069706;28;20237;-72